Time;durP1;ratioP1;P1;durP2;ratioP2;P2;SDS_P1;SDS_P2;PMS_P1;PMS_P2;Temp;Humidity;BMP_temperature;BMP_pressure;BME280_temperature;BME280_humidity;BME280_pressure;Samples;Min_cycle;Max_cycle;Signal;HPM_P1;HPM_P2
2021/08/28 00:00:45;;;;;;;12.07;8.25;;;16.60;84.50;;;;;;5012790;28;20045;-80
2021/08/28 00:03:11;;;;;;;13.13;7.53;;;16.60;84.60;;;;;;5020622;28;20062;-79
2021/08/28 00:05:37;;;;;;;10.52;7.35;;;16.60;84.60;;;;;;5012976;28;20103;-80
2021/08/28 00:08:03;;;;;;;14.23;7.90;;;16.60;84.10;;;;;;5012929;28;20037;-80
2021/08/28 00:10:29;;;;;;;12.60;7.00;;;16.60;84.20;;;;;;5012824;28;20022;-80
2021/08/28 00:12:55;;;;;;;11.90;7.63;;;16.60;84.30;;;;;;5012727;28;20056;-80
2021/08/28 00:15:20;;;;;;;16.23;7.00;;;16.60;84.30;;;;;;5004727;28;20025;-80
2021/08/28 00:17:46;;;;;;;10.02;6.78;;;16.60;84.30;;;;;;5012904;28;20028;-80
2021/08/28 00:20:15;;;;;;;10.45;6.05;;;16.60;84.40;;;;;;5012607;28;20022;-79
2021/08/28 00:22:41;;;;;;;7.45;5.72;;;16.60;84.10;;;;;;5012823;28;20396;-81
2021/08/28 00:25:07;;;;;;;12.82;5.38;;;16.50;84.30;;;;;;5012543;28;20049;-82
2021/08/28 00:27:34;;;;;;;5.82;4.78;;;16.50;84.30;;;;;;5012850;28;20021;-82
2021/08/28 00:30:00;;;;;;;6.22;4.88;;;16.50;84.20;;;;;;5012483;28;20100;-81
2021/08/28 00:32:26;;;;;;;9.07;5.85;;;16.50;84.10;;;;;;5012547;28;20018;-81
2021/08/28 00:34:52;;;;;;;9.00;4.75;;;16.40;84.30;;;;;;5012817;28;20399;-81
2021/08/28 00:37:18;;;;;;;7.82;5.30;;;16.40;84.40;;;;;;5013232;28;20014;-80
2021/08/28 00:39:43;;;;;;;5.40;4.40;;;16.40;84.50;;;;;;5012874;28;20030;-80
2021/08/28 00:42:09;;;;;;;7.75;4.53;;;16.40;84.40;;;;;;5012149;28;20041;-80
2021/08/28 00:44:40;;;;;;;6.75;4.97;;;16.30;84.50;;;;;;5012582;28;20022;-81
2021/08/28 00:47:06;;;;;;;9.52;5.57;;;16.30;84.50;;;;;;5012313;28;20433;-80
2021/08/28 00:49:32;;;;;;;7.68;5.20;;;16.30;84.70;;;;;;5012487;28;20085;-81
2021/08/28 00:52:02;;;;;;;10.93;4.75;;;16.30;84.70;;;;;;5011333;28;20105;-79
2021/08/28 00:54:28;;;;;;;6.88;4.90;;;16.20;85.00;;;;;;5012530;28;20072;-79
2021/08/28 00:56:54;;;;;;;7.97;5.37;;;16.20;85.00;;;;;;5013545;28;20057;-80
2021/08/28 00:59:20;;;;;;;6.55;4.90;;;16.20;85.20;;;;;;5013415;28;20029;-80
2021/08/28 01:01:48;;;;;;;8.02;4.82;;;16.20;85.30;;;;;;5012439;28;20030;-81
2021/08/28 01:04:19;;;;;;;7.97;5.70;;;16.10;85.40;;;;;;5012473;28;20344;-81
2021/08/28 01:07:01;;;;;;;8.07;4.35;;;16.10;85.50;;;;;;5012341;28;20026;-81
2021/08/28 01:09:35;;;;;;;7.40;4.78;;;16.10;85.50;;;;;;5012115;28;20019;-80
2021/08/28 01:12:16;;;;;;;7.78;4.45;;;16.10;85.60;;;;;;5012184;28;20022;-80
2021/08/28 01:14:51;;;;;;;6.45;4.75;;;16.10;86.10;;;;;;5012307;28;20017;-80
2021/08/28 01:17:18;;;;;;;7.65;4.50;;;16.10;85.60;;;;;;5003448;28;20387;-80
2021/08/28 01:20:11;;;;;;;9.70;4.07;;;16.10;85.50;;;;;;5007637;28;20104;-79
2021/08/28 01:22:39;;;;;;;8.57;4.65;;;16.10;85.40;;;;;;5012259;28;20030;-80
2021/08/28 01:25:08;;;;;;;13.10;4.93;;;16.10;85.50;;;;;;5011964;28;20022;-80
2021/08/28 01:27:46;;;;;;;6.43;3.80;;;16.10;85.40;;;;;;5012350;28;20052;-79
2021/08/28 01:30:13;;;;;;;6.93;4.15;;;16.10;85.20;;;;;;5011582;28;20018;-78
2021/08/28 01:32:40;;;;;;;8.32;4.90;;;16.00;85.00;;;;;;5010557;28;20124;-81
2021/08/28 01:35:06;;;;;;;;;;;16.00;85.10;;;;;;5014486;28;20068;-78
2021/08/28 01:37:33;;;;;;;4.53;3.17;;;16.00;84.90;;;;;;5015363;28;19905;-81
2021/08/28 01:40:05;;;;;;;6.45;3.55;;;16.00;85.40;;;;;;5012598;28;20026;-80
2021/08/28 01:42:32;;;;;;;4.85;3.75;;;15.90;85.40;;;;;;5012272;28;20156;-80
2021/08/28 01:44:58;;;;;;;6.82;3.53;;;15.90;85.40;;;;;;5014507;28;20014;-78
2021/08/28 01:47:28;;;;;;;15.75;4.05;;;15.90;85.50;;;;;;5015643;28;20116;-79
2021/08/28 01:49:54;;;;;;;5.28;3.80;;;15.90;85.40;;;;;;5015506;28;20101;-79
2021/08/28 01:52:20;;;;;;;8.10;4.22;;;15.90;85.60;;;;;;5015555;28;20021;-79
2021/08/28 01:54:49;;;;;;;5.60;3.70;;;15.90;85.50;;;;;;5015179;28;20077;-80
2021/08/28 01:57:15;;;;;;;5.03;3.47;;;15.80;85.60;;;;;;5014296;28;20063;-80
2021/08/28 01:59:41;;;;;;;8.32;4.28;;;15.80;85.70;;;;;;5015529;28;20026;-78
2021/08/28 02:02:08;;;;;;;5.60;4.22;;;15.70;85.80;;;;;;5015429;28;20534;-80
2021/08/28 02:04:35;;;;;;;9.00;3.65;;;15.70;85.90;;;;;;5015453;28;20022;-79
2021/08/28 02:07:04;;;;;;;8.82;3.92;;;15.70;86.00;;;;;;5014923;28;20487;-81
2021/08/28 02:09:52;;;;;;;6.47;3.58;;;15.70;86.00;;;;;;5015043;28;20026;-80
2021/08/28 02:12:37;;;;;;;7.90;3.80;;;15.70;85.80;;;;;;5001817;28;20036;-79
2021/08/28 02:15:13;;;;;;;5.88;3.25;;;15.70;85.90;;;;;;5014955;28;20057;-80
2021/08/28 02:17:49;;;;;;;6.35;3.55;;;15.70;86.10;;;;;;5001376;28;20017;-80
2021/08/28 02:20:17;;;;;;;7.07;3.63;;;15.70;85.80;;;;;;5014871;28;20058;-80
2021/08/28 02:22:47;;;;;;;10.85;4.05;;;15.60;86.00;;;;;;5015014;28;20065;-79
2021/08/28 02:25:24;;;;;;;9.13;3.72;;;15.60;86.00;;;;;;5014946;28;20021;-80
2021/08/28 02:27:55;;;;;;;11.30;3.88;;;15.70;85.80;;;;;;5014711;28;20040;-80
2021/08/28 02:30:21;;;;;;;6.03;3.97;;;15.60;85.80;;;;;;5014732;28;20026;-80
2021/08/28 02:32:53;;;;;;;7.90;3.05;;;15.60;85.90;;;;;;5014880;28;20022;-80
2021/08/28 02:35:20;;;;;;;5.57;3.60;;;15.50;86.00;;;;;;5015218;28;20049;-79
2021/08/28 02:37:47;;;;;;;6.47;3.45;;;15.50;86.00;;;;;;5015571;28;20029;-80
2021/08/28 02:40:16;;;;;;;6.47;3.58;;;15.50;85.90;;;;;;5016295;28;20045;-80
2021/08/28 02:42:44;;;;;;;8.02;3.97;;;15.40;86.10;;;;;;5014540;28;20044;-79
2021/08/28 02:45:16;;;;;;;7.40;3.63;;;15.50;86.50;;;;;;5015015;28;20025;-79
2021/08/28 02:47:43;;;;;;;5.78;3.13;;;15.50;86.30;;;;;;5014511;28;20093;-81
2021/08/28 02:50:10;;;;;;;7.88;3.60;;;15.50;86.20;;;;;;5014662;28;20018;-80
2021/08/28 02:52:37;;;;;;;7.97;3.85;;;15.50;86.10;;;;;;5014397;28;20018;-82
2021/08/28 02:55:05;;;;;;;5.90;3.45;;;15.50;86.30;;;;;;5014130;28;20033;-80
2021/08/28 02:57:33;;;;;;;9.18;3.75;;;15.40;86.20;;;;;;5014198;28;20041;-80
2021/08/28 02:59:58;;;;;;;4.55;3.00;;;15.50;86.10;;;;;;5014465;28;20097;-81
2021/08/28 03:02:25;;;;;;;9.57;3.38;;;15.40;86.10;;;;;;5014358;28;20117;-80
2021/08/28 03:04:52;;;;;;;6.65;3.65;;;15.50;86.10;;;;;;5014092;28;20029;-81
2021/08/28 03:07:19;;;;;;;5.93;3.40;;;15.50;85.90;;;;;;5014089;28;20026;-80
2021/08/28 03:09:46;;;;;;;8.70;3.45;;;15.40;85.70;;;;;;5014011;28;20034;-79
2021/08/28 03:12:12;;;;;;;5.30;3.55;;;15.30;85.90;;;;;;5014024;28;20030;-79
2021/08/28 03:14:38;;;;;;;8.88;3.65;;;15.30;86.10;;;;;;5013980;28;20026;-81
2021/08/28 03:17:06;;;;;;;5.10;3.60;;;15.30;86.10;;;;;;5013836;28;20018;-81
2021/08/28 03:19:32;;;;;;;8.65;3.88;;;15.30;86.00;;;;;;5013808;28;20014;-79
2021/08/28 03:22:02;;;;;;;4.03;3.22;;;15.30;86.20;;;;;;5012801;28;20033;-80
2021/08/28 03:24:30;;;;;;;9.25;3.28;;;15.30;86.20;;;;;;5013838;28;20026;-80
2021/08/28 03:26:57;;;;;;;6.72;3.55;;;15.30;86.10;;;;;;5013627;28;20104;-80
2021/08/28 03:29:24;;;;;;;6.97;3.38;;;15.40;85.90;;;;;;5013692;28;20024;-80
2021/08/28 03:31:52;;;;;;;5.18;3.78;;;15.40;85.70;;;;;;5013666;28;20491;-80
2021/08/28 03:34:18;;;;;;;;;;;15.30;85.60;;;;;;5014006;28;20100;-80
2021/08/28 03:36:45;;;;;;;9.73;4.47;;;15.30;85.60;;;;;;5013660;28;19983;-80
2021/08/28 03:39:11;;;;;;;8.05;3.88;;;15.30;85.80;;;;;;5013181;28;20022;-80
2021/08/28 03:41:38;;;;;;;7.53;3.58;;;15.30;85.80;;;;;;5011902;28;20371;-81
2021/08/28 03:44:04;;;;;;;5.35;3.60;;;15.30;85.70;;;;;;5013412;28;20434;-80
2021/08/28 03:46:32;;;;;;;10.98;4.70;;;15.20;85.80;;;;;;5013209;28;20022;-80
2021/08/28 03:48:58;;;;;;;8.75;5.80;;;15.20;86.00;;;;;;5013274;28;20025;-81
2021/08/28 03:51:24;;;;;;;7.50;3.53;;;15.30;86.00;;;;;;5012995;28;20045;-79
2021/08/28 03:53:50;;;;;;;5.82;3.88;;;15.30;85.30;;;;;;5013211;28;20026;-81
2021/08/28 03:56:15;;;;;;;8.63;4.47;;;15.30;85.40;;;;;;5011827;28;20488;-81
2021/08/28 03:58:41;;;;;;;7.88;4.35;;;15.40;85.70;;;;;;5013187;28;20103;-80
2021/08/28 04:01:07;;;;;;;6.63;3.47;;;15.50;85.20;;;;;;5013081;28;20040;-80
2021/08/28 04:03:33;;;;;;;8.93;5.40;;;15.70;84.20;;;;;;5012876;28;20794;-80
2021/08/28 04:05:58;;;;;;;9.20;3.55;;;15.80;83.90;;;;;;5011638;28;20025;-80
2021/08/28 04:08:24;;;;;;;9.30;4.65;;;15.80;83.10;;;;;;5012274;28;20093;-79
2021/08/28 04:10:50;;;;;;;9.13;4.28;;;15.80;84.20;;;;;;5012829;28;20065;-79
2021/08/28 04:13:16;;;;;;;14.13;6.70;;;15.80;83.80;;;;;;5011432;28;20072;-81
2021/08/28 04:15:42;;;;;;;8.70;3.65;;;15.80;83.70;;;;;;5012903;28;20030;-80
2021/08/28 04:18:08;;;;;;;7.00;3.60;;;15.80;83.10;;;;;;5012811;28;20022;-81
2021/08/28 04:20:34;;;;;;;9.43;3.50;;;15.90;82.80;;;;;;5011190;28;20124;-80
2021/08/28 04:23:00;;;;;;;8.18;3.20;;;15.90;82.30;;;;;;5012484;28;20547;-80
2021/08/28 04:25:26;;;;;;;6.38;3.45;;;16.00;82.60;;;;;;5012358;28;20144;-80
2021/08/28 04:27:52;;;;;;;7.32;3.25;;;16.20;82.00;;;;;;5015599;28;20030;-79
2021/08/28 04:30:18;;;;;;;8.23;3.70;;;16.20;81.60;;;;;;5018014;28;20156;-80
2021/08/28 04:32:44;;;;;;;6.35;3.30;;;16.40;81.30;;;;;;5013257;28;20038;-81
2021/08/28 04:35:10;;;;;;;6.30;2.83;;;16.80;80.00;;;;;;5012871;28;20026;-82
2021/08/28 04:37:36;;;;;;;6.95;3.35;;;17.20;77.60;;;;;;5011355;28;20028;-80
2021/08/28 04:40:03;;;;;;;8.57;4.25;;;17.50;75.80;;;;;;5011519;28;20030;-80
2021/08/28 04:42:28;;;;;;;9.60;3.97;;;17.60;75.00;;;;;;5011915;28;20073;-83
2021/08/28 04:44:54;;;;;;;10.73;3.85;;;17.90;74.70;;;;;;5012730;28;20058;-79
2021/08/28 04:47:23;;;;;;;8.45;4.60;;;18.10;73.10;;;;;;5012801;28;20104;-82
2021/08/28 04:49:49;;;;;;;8.60;3.38;;;18.10;72.50;;;;;;5012696;28;20018;-81
2021/08/28 04:52:15;;;;;;;6.70;4.07;;;18.10;72.20;;;;;;5012726;28;20065;-81
2021/08/28 04:54:41;;;;;;;6.30;3.72;;;18.00;72.30;;;;;;5012429;28;20127;-82
2021/08/28 04:57:07;;;;;;;20.92;11.13;;;17.90;72.30;;;;;;5012209;28;20034;-83
2021/08/28 04:59:33;;;;;;;6.68;3.78;;;17.80;72.70;;;;;;5012569;28;20472;-81
2021/08/28 05:02:00;;;;;;;6.68;3.30;;;18.00;72.60;;;;;;5004816;28;20045;-81
2021/08/28 05:04:27;;;;;;;5.85;3.65;;;18.40;71.70;;;;;;5012469;28;20014;-81
2021/08/28 05:06:53;;;;;;;7.00;3.75;;;19.00;69.70;;;;;;5009989;28;20049;-82
2021/08/28 05:09:18;;;;;;;6.68;3.72;;;19.30;68.00;;;;;;5012585;28;20085;-81
2021/08/28 05:11:44;;;;;;;8.50;4.03;;;19.60;66.60;;;;;;5011877;28;20030;-83
2021/08/28 05:14:10;;;;;;;11.90;7.55;;;19.90;66.20;;;;;;4982160;28;20034;-82
2021/08/28 05:16:36;;;;;;;9.90;3.65;;;20.50;64.50;;;;;;5031720;28;20049;-81
2021/08/28 05:19:02;;;;;;;5.55;2.70;;;20.90;63.40;;;;;;5024434;28;20022;-81
2021/08/28 05:21:28;;;;;;;10.45;2.90;;;20.90;61.40;;;;;;5010174;28;20041;-82
2021/08/28 05:23:54;;;;;;;7.25;2.90;;;20.20;62.50;;;;;;5008141;28;20064;-81
2021/08/28 05:26:20;;;;;;;8.35;3.08;;;19.50;64.60;;;;;;5012443;28;20061;-82
2021/08/28 05:28:46;;;;;;;5.18;3.55;;;18.80;66.40;;;;;;5016216;28;20033;-80
2021/08/28 05:31:11;;;;;;;5.78;2.72;;;18.40;68.60;;;;;;5017056;28;20115;-80
2021/08/28 05:33:37;;;;;;;5.75;3.63;;;18.80;69.00;;;;;;5015874;28;20101;-81
2021/08/28 05:36:04;;;;;;;6.80;4.97;;;19.50;66.80;;;;;;5015811;28;20025;-79
2021/08/28 05:38:30;;;;;;;6.40;4.35;;;20.40;64.10;;;;;;5015878;28;20018;-82
2021/08/28 05:40:57;;;;;;;3.70;2.88;;;20.90;62.10;;;;;;5015545;28;20168;-82
2021/08/28 05:43:23;;;;;;;8.43;3.25;;;21.20;60.40;;;;;;5015759;28;20041;-81
2021/08/28 05:45:48;;;;;;;4.70;3.63;;;21.70;59.60;;;;;;5015768;28;20502;-81
2021/08/28 05:48:14;;;;;;;4.57;2.97;;;22.00;58.00;;;;;;5015568;28;20018;-80
2021/08/28 05:50:40;;;;;;;5.63;3.00;;;22.50;56.90;;;;;;5015862;28;20021;-81
2021/08/28 05:53:06;;;;;;;7.47;3.30;;;22.90;56.10;;;;;;5015589;28;20044;-83
2021/08/28 05:55:32;;;;;;;9.65;3.30;;;23.70;54.20;;;;;;5015561;28;20018;-81
2021/08/28 05:57:58;;;;;;;7.78;3.97;;;24.20;51.80;;;;;;5015423;28;20029;-81
2021/08/28 06:00:24;;;;;;;5.07;3.10;;;24.00;52.00;;;;;;5015406;28;20471;-81
2021/08/28 06:02:50;;;;;;;8.45;3.17;;;24.00;51.40;;;;;;5015406;28;20156;-82
2021/08/28 06:05:16;;;;;;;6.35;3.47;;;23.90;51.30;;;;;;5015008;28;20105;-82
2021/08/28 06:07:42;;;;;;;9.88;3.33;;;24.20;51.30;;;;;;5015286;28;20026;-82
2021/08/28 06:10:08;;;;;;;5.60;2.85;;;;;;;;;;5015003;28;20104;-82
2021/08/28 06:12:35;;;;;;;13.15;5.18;;;;;;;;;;5014077;28;20013;-81
2021/08/28 06:15:01;;;;;;;9.07;3.53;;;;;;;;;;5013787;28;20133;-81
2021/08/28 06:17:27;;;;;;;5.63;3.03;;;;;;;;;;5015140;28;20406;-82
2021/08/28 06:19:53;;;;;;;7.93;3.42;;;;;;;;;;5015009;28;20263;-82
2021/08/28 06:22:20;;;;;;;8.82;4.70;;;;;;;;;;5014773;28;20029;-82
2021/08/28 06:24:46;;;;;;;5.20;3.15;;;;;;;;;;5014973;28;20026;-81
2021/08/28 06:27:12;;;;;;;7.70;2.70;;;;;;;;;;5013512;28;20030;-81
2021/08/28 06:29:38;;;;;;;7.20;3.08;;;25.10;49.90;;;;;;5014821;28;20037;-80
2021/08/28 06:32:06;;;;;;;6.82;2.40;;;26.30;45.30;;;;;;4999915;28;20026;-82
2021/08/28 06:34:32;;;;;;;11.02;3.25;;;25.80;46.20;;;;;;5014823;28;20018;-82
2021/08/28 06:36:58;;;;;;;6.07;3.30;;;25.60;46.60;;;;;;5013004;28;20064;-81
2021/08/28 06:39:24;;;;;;;9.68;2.95;;;26.00;46.10;;;;;;5014675;28;20018;-82
2021/08/28 06:41:49;;;;;;;8.32;2.80;;;26.40;45.10;;;;;;5014366;28;20041;-83
2021/08/28 06:44:16;;;;;;;5.40;3.40;;;26.50;44.90;;;;;;5014723;28;20022;-81
2021/08/28 06:46:43;;;;;;;7.53;3.03;;;26.10;45.10;;;;;;5014839;28;20129;-82
2021/08/28 06:49:09;;;;;;;6.60;2.72;;;26.10;45.70;;;;;;5014419;28;20026;-82
2021/08/28 06:51:35;;;;;;;7.15;3.42;;;26.30;45.30;;;;;;5014485;28;20033;-81
2021/08/28 06:54:02;;;;;;;6.10;3.28;;;26.40;45.20;;;;;;5014363;28;20018;-82
2021/08/28 06:56:28;;;;;;;4.93;3.25;;;26.40;45.30;;;;;;5010276;28;20034;-83
2021/08/28 06:58:53;;;;;;;11.60;3.78;;;26.90;45.30;;;;;;5013038;28;20096;-83
2021/08/28 07:01:19;;;;;;;7.13;2.92;;;28.00;43.90;;;;;;5011674;28;20037;-84
2021/08/28 07:03:45;;;;;;;11.03;5.53;;;29.50;41.60;;;;;;5014874;28;20073;-82
2021/08/28 07:06:11;;;;;;;6.40;3.78;;;29.90;40.40;;;;;;5014656;28;20105;-84
2021/08/28 07:08:37;;;;;;;7.40;5.07;;;30.00;39.00;;;;;;5014089;28;20096;-81
2021/08/28 07:11:04;;;;;;;8.63;3.60;;;29.00;40.20;;;;;;5009298;28;20050;-81
2021/08/28 07:13:30;;;;;;;9.35;4.00;;;28.40;41.10;;;;;;5011191;28;20080;-83
2021/08/28 07:15:56;;;;;;;13.87;6.97;;;28.70;41.30;;;;;;5005674;28;20427;-84
2021/08/28 07:18:21;;;;;;;10.30;4.25;;;29.30;40.40;;;;;;5009881;28;20116;-82
2021/08/28 07:20:47;;;;;;;7.20;2.97;;;29.30;40.20;;;;;;5018236;28;20403;-82
2021/08/28 07:23:13;;;;;;;6.93;3.03;;;29.50;39.60;;;;;;5016735;28;20030;-85
2021/08/28 07:25:39;;;;;;;14.85;3.28;;;30.20;38.80;;;;;;5013878;28;20028;-83
2021/08/28 07:28:12;;;;;;;7.77;3.43;;;30.30;38.80;;;;;;5014434;28;20026;-83
2021/08/28 07:30:39;;;;;;;11.75;4.07;;;30.70;38.50;;;;;;5013174;28;20025;-82
2021/08/28 07:33:05;;;;;;;8.98;3.60;;;30.90;38.40;;;;;;5028905;28;20026;-81
2021/08/28 07:35:31;;;;;;;7.32;3.55;;;30.70;37.70;;;;;;5026022;28;20026;-81
2021/08/28 07:38:00;;;;;;;;;;;30.30;38.40;;;;;;5014454;28;20057;-82
2021/08/28 07:40:26;;;;;;;4.45;2.47;;;29.90;39.00;;;;;;5013458;28;19905;-81
2021/08/28 07:42:56;;;;;;;10.97;4.33;;;29.80;38.90;;;;;;5012983;28;20407;-80
2021/08/28 07:45:22;;;;;;;6.70;3.47;;;29.60;38.70;;;;;;5013502;28;20022;-82
2021/08/28 07:47:48;;;;;;;6.47;3.97;;;29.70;39.30;;;;;;5012837;28;20026;-82
2021/08/28 07:50:15;;;;;;;6.50;3.50;;;30.30;38.60;;;;;;5013340;28;20136;-82
2021/08/28 07:52:42;;;;;;;9.25;3.00;;;31.10;38.10;;;;;;5013032;28;20290;-86
2021/08/28 07:55:10;;;;;;;10.85;3.63;;;31.40;36.60;;;;;;5012760;28;20022;-80
2021/08/28 07:57:36;;;;;;;7.00;2.90;;;30.90;37.10;;;;;;5012845;28;20069;-79
2021/08/28 08:00:03;;;;;;;4.38;2.67;;;31.40;37.40;;;;;;5012888;28;20014;-81
2021/08/28 08:02:29;;;;;;;4.60;2.55;;;31.50;36.20;;;;;;5005214;28;20103;-81
2021/08/28 08:04:55;;;;;;;4.23;2.60;;;30.30;36.70;;;;;;5013968;28;20479;-78
2021/08/28 08:07:20;;;;;;;5.67;3.17;;;29.70;38.40;;;;;;5011545;28;20478;-80
2021/08/28 08:09:47;;;;;;;6.47;2.97;;;30.20;38.20;;;;;;5012614;28;20419;-82
2021/08/28 08:12:13;;;;;;;6.88;2.75;;;30.80;37.10;;;;;;5012715;28;20021;-83
2021/08/28 08:14:39;;;;;;;8.73;3.08;;;30.80;37.30;;;;;;5012744;28;20017;-81
2021/08/28 08:17:05;;;;;;;6.23;2.50;;;31.40;36.60;;;;;;5012631;28;20077;-83
2021/08/28 08:19:31;;;;;;;7.00;3.07;;;32.60;35.90;;;;;;5013271;28;20033;-83
2021/08/28 08:21:57;;;;;;;9.60;4.15;;;32.80;35.00;;;;;;5012490;28;20495;-81
2021/08/28 08:24:23;;;;;;;9.60;2.70;;;33.40;34.90;;;;;;5011857;28;20026;-82
2021/08/28 08:26:49;;;;;;;8.40;2.97;;;33.40;33.70;;;;;;5012191;28;20029;-82
2021/08/28 08:29:15;;;;;;;7.10;3.07;;;33.40;34.30;;;;;;5012471;28;20022;-83
2021/08/28 08:31:41;;;;;;;5.57;2.67;;;33.90;33.60;;;;;;5012578;28;20263;-81
2021/08/28 08:34:06;;;;;;;4.87;2.77;;;33.80;33.60;;;;;;5012592;28;20018;-81
2021/08/28 08:36:32;;;;;;;6.00;2.80;;;33.70;33.10;;;;;;5013086;28;20395;-79
2021/08/28 08:38:58;;;;;;;5.75;2.28;;;33.10;33.70;;;;;;5012438;28;20270;-81
2021/08/28 08:41:25;;;;;;;7.03;4.35;;;33.10;33.80;;;;;;5011235;28;20425;-80
2021/08/28 08:43:54;;;;;;;6.60;4.40;;;33.20;34.30;;;;;;5012137;28;20074;-79
2021/08/28 08:46:24;;;;;;;5.82;2.70;;;33.00;34.20;;;;;;5012818;28;20468;-80
2021/08/28 08:48:51;;;;;;;7.35;3.75;;;32.20;34.40;;;;;;5013490;28;20033;-84
2021/08/28 08:51:19;;;;;;;9.68;3.20;;;31.30;35.60;;;;;;5012235;28;20017;-84
2021/08/28 08:53:45;;;;;;;4.20;2.58;;;31.60;36.10;;;;;;5009300;28;20125;-84
2021/08/28 08:56:11;;;;;;;;;;;32.20;35.10;;;;;;5018991;28;20018;-83
2021/08/28 08:58:39;;;;;;;8.00;2.88;;;31.60;36.20;;;;;;5017759;28;20290;-87
2021/08/28 09:01:06;;;;;;;4.30;2.95;;;31.10;36.40;;;;;;5015791;28;20049;-81
2021/08/28 09:03:33;;;;;;;5.65;3.55;;;31.30;36.30;;;;;;5016287;28;20372;-83
2021/08/28 09:05:59;;;;;;;5.95;2.90;;;31.60;36.10;;;;;;5017009;28;20026;-83
2021/08/28 09:08:25;;;;;;;12.15;4.65;;;31.20;36.10;;;;;;5018165;28;20018;-85
2021/08/28 09:10:51;;;;;;;7.03;2.67;;;31.40;36.40;;;;;;5016907;28;20033;-84
2021/08/28 09:13:22;;;;;;;10.45;5.60;;;31.40;36.00;;;;;;5016570;28;20038;-83
2021/08/28 09:15:49;;;;;;;8.80;3.60;;;30.50;37.20;;;;;;5016614;28;20037;-85
2021/08/28 09:18:16;;;;;;;11.45;3.75;;;30.10;37.90;;;;;;5019668;28;20014;-83
2021/08/28 09:20:43;;;;;;;9.43;3.50;;;30.00;38.20;;;;;;5017325;28;20022;-84
2021/08/28 09:23:10;;;;;;;;;;;30.50;37.80;;;;;;5022102;28;20046;-86
2021/08/28 09:25:42;;;;;;;6.63;2.58;;;30.70;37.50;;;;;;5029276;28;19906;-85
2021/08/28 09:28:09;;;;;;;7.40;3.35;;;30.70;37.30;;;;;;5016934;28;20021;-85
2021/08/28 09:30:36;;;;;;;3.90;2.47;;;30.20;37.90;;;;;;5016253;28;20032;-83
2021/08/28 09:33:18;;;;;;;13.55;6.07;;;30.20;37.40;;;;;;5016096;28;20022;-85
2021/08/28 09:35:49;;;;;;;13.77;4.53;;;30.50;37.80;;;;;;5016018;28;20020;-83
2021/08/28 09:38:19;;;;;;;5.70;2.95;;;31.90;37.00;;;;;;5014912;28;20048;-85
2021/08/28 09:40:52;;;;;;;7.85;2.78;;;32.60;34.90;;;;;;5016271;28;20033;-83
2021/08/28 09:43:20;;;;;;;6.43;2.50;;;32.30;35.00;;;;;;5015976;28;20125;-85
2021/08/28 09:45:48;;;;;;;5.53;2.88;;;32.40;35.00;;;;;;5016654;28;20053;-84
2021/08/28 09:48:16;;;;;;;5.45;2.97;;;32.50;35.10;;;;;;5018013;28;20378;-85
2021/08/28 09:50:48;;;;;;;6.97;3.22;;;32.90;34.80;;;;;;5036011;28;20010;-84
2021/08/28 09:53:27;;;;;;;7.32;3.90;;;33.20;34.50;;;;;;5026678;28;20018;-83
2021/08/28 09:56:01;;;;;;;5.90;2.72;;;33.10;34.60;;;;;;5016615;28;20029;-85
2021/08/28 09:58:31;;;;;;;6.78;3.10;;;32.70;34.40;;;;;;5015797;28;20053;-85
2021/08/28 10:01:05;;;;;;;4.38;2.85;;;32.00;35.20;;;;;;5014430;28;20640;-84
2021/08/28 10:03:32;;;;;;;10.57;4.90;;;32.30;35.20;;;;;;5016021;28;20014;-85
2021/08/28 10:06:00;;;;;;;9.80;3.47;;;32.20;35.50;;;;;;5014516;28;20026;-84
2021/08/28 10:08:27;;;;;;;5.40;3.53;;;32.50;34.50;;;;;;5017777;28;20364;-86
2021/08/28 10:10:53;;;;;;;6.47;3.00;;;32.40;34.50;;;;;;5024174;28;20383;-83
2021/08/28 10:13:23;;;;;;;8.77;3.70;;;31.30;35.70;;;;;;5025194;28;20137;-83
2021/08/28 10:15:50;;;;;;;3.53;2.67;;;31.40;36.30;;;;;;5017279;28;20033;-84
2021/08/28 10:18:16;;;;;;;7.80;3.08;;;31.80;35.50;;;;;;5015869;28;20053;-86
2021/08/28 10:20:43;;;;;;;8.25;3.80;;;32.40;35.40;;;;;;5002253;28;20034;-84
2021/08/28 10:23:09;;;;;;;;;;;33.20;34.20;;;;;;5016875;28;20105;-82
2021/08/28 10:25:43;;;;;;;5.72;2.97;;;33.10;34.90;;;;;;5016001;28;19909;-83
2021/08/28 10:28:11;;;;;;;6.55;2.92;;;32.10;34.80;;;;;;5015907;28;20022;-84
2021/08/28 10:30:37;;;;;;;11.80;5.07;;;29.70;37.20;;;;;;5015797;28;20084;-85
2021/08/28 10:33:04;;;;;;;9.90;3.80;;;28.10;40.10;;;;;;5015486;28;20391;-83
2021/08/28 10:35:30;;;;;;;10.75;4.40;;;26.90;42.00;;;;;;5014849;28;20633;-83
2021/08/28 10:37:56;;;;;;;11.82;5.78;;;26.20;43.40;;;;;;5016423;28;20026;-83
2021/08/28 10:40:29;;;;;;;10.80;4.07;;;25.70;44.40;;;;;;5010261;28;20117;-84
2021/08/28 10:42:59;;;;;;;11.23;5.90;;;25.00;45.40;;;;;;5013450;28;20506;-83
2021/08/28 10:45:26;;;;;;;9.10;4.30;;;24.50;46.70;;;;;;5015111;28;20026;-83
2021/08/28 10:48:01;;;;;;;5.35;3.67;;;23.90;47.90;;;;;;5014848;28;20367;-84
2021/08/28 10:50:45;;;;;;;8.23;3.67;;;23.40;49.20;;;;;;5015016;28;20022;-84
2021/08/28 10:53:12;;;;;;;13.02;4.22;;;23.00;49.90;;;;;;5014425;28;20360;-84
2021/08/28 10:55:40;;;;;;;6.33;3.60;;;22.80;50.70;;;;;;5005455;28;20022;-82
2021/08/28 10:58:28;;;;;;;6.20;3.22;;;22.70;51.40;;;;;;5010629;28;20260;-82
2021/08/28 11:00:56;;;;;;;11.43;4.43;;;22.60;51.50;;;;;;5015508;28;20495;-86
2021/08/28 11:03:23;;;;;;;12.63;4.55;;;22.50;52.10;;;;;;5014613;28;20026;-83
2021/08/28 11:06:11;;;;;;;10.10;6.10;;;22.40;52.20;;;;;;5014378;28;20029;-84
2021/08/28 11:08:47;;;;;;;7.28;4.35;;;22.30;52.40;;;;;;5014319;28;20018;-84
2021/08/28 11:11:35;;;;;;;7.45;4.85;;;22.10;53.20;;;;;;5014220;28;20033;-83
2021/08/28 11:14:06;;;;;;;10.52;4.00;;;22.10;53.80;;;;;;5001315;28;20490;-85
2021/08/28 11:16:41;;;;;;;8.60;5.90;;;21.90;54.40;;;;;;5013779;28;20022;-84
2021/08/28 11:19:08;;;;;;;7.28;3.58;;;21.90;54.50;;;;;;5001455;28;20033;-83
2021/08/28 11:21:45;;;;;;;10.23;5.80;;;21.90;54.60;;;;;;5014239;28;20034;-82
2021/08/28 11:24:29;;;;;;;7.75;3.92;;;21.70;55.10;;;;;;5001012;28;20022;-82
2021/08/28 11:26:57;;;;;;;6.63;4.47;;;21.80;55.10;;;;;;5014104;28;20033;-83
2021/08/28 11:29:48;;;;;;;4.93;3.35;;;21.70;55.60;;;;;;5014114;28;20022;-82
2021/08/28 11:32:17;;;;;;;8.27;4.53;;;21.60;55.50;;;;;;5013924;28;20018;-85
2021/08/28 11:34:55;;;;;;;8.98;4.70;;;21.50;55.80;;;;;;5012841;28;20101;-83
2021/08/28 11:37:29;;;;;;;5.20;3.60;;;21.40;56.30;;;;;;5014210;28;20010;-84
2021/08/28 11:40:17;;;;;;;12.63;5.15;;;21.50;56.10;;;;;;5014381;28;20458;-84
2021/08/28 11:42:43;;;;;;;7.38;4.10;;;21.40;56.70;;;;;;5012269;28;20119;-83
2021/08/28 11:45:10;;;;;;;5.60;3.33;;;21.50;56.30;;;;;;5016159;28;20109;-85
2021/08/28 11:47:38;;;;;;;5.73;3.33;;;21.50;56.00;;;;;;5014938;28;20026;-83
2021/08/28 11:50:06;;;;;;;7.55;3.92;;;21.30;56.40;;;;;;5013664;28;20105;-82
2021/08/28 11:52:36;;;;;;;7.18;4.20;;;21.30;56.70;;;;;;5013736;28;20476;-85
2021/08/28 11:55:11;;;;;;;12.10;3.85;;;21.40;56.90;;;;;;5013465;28;20112;-84
2021/08/28 11:57:37;;;;;;;6.32;3.50;;;21.40;57.00;;;;;;5013705;28;20022;-84
2021/08/28 12:00:06;;;;;;;8.60;3.42;;;21.50;57.20;;;;;;5014024;28;20053;-84
2021/08/28 12:02:31;;;;;;;6.55;3.22;;;21.50;56.70;;;;;;5015262;28;20034;-84
2021/08/28 12:05:08;;;;;;;6.90;3.67;;;21.40;56.40;;;;;;5024228;28;20442;-81
2021/08/28 12:07:34;;;;;;;9.55;3.50;;;21.40;56.90;;;;;;5033036;28;20102;-83
2021/08/28 12:10:00;;;;;;;7.75;3.85;;;21.40;56.90;;;;;;5016264;28;20026;-84
2021/08/28 12:12:25;;;;;;;7.40;4.00;;;21.40;57.20;;;;;;5013653;28;20025;-84
2021/08/28 12:14:53;;;;;;;7.47;2.65;;;21.50;56.70;;;;;;5013462;28;20030;-82
2021/08/28 12:17:30;;;;;;;8.25;3.70;;;21.50;56.60;;;;;;5013349;28;20029;-85
2021/08/28 12:20:01;;;;;;;8.02;3.50;;;21.50;56.80;;;;;;4999957;28;20022;-88
2021/08/28 12:22:27;;;;;;;7.93;3.50;;;21.30;57.10;;;;;;4999843;28;20034;-83
2021/08/28 12:24:53;;;;;;;9.00;3.22;;;21.30;57.40;;;;;;5011848;28;20559;-84
2021/08/28 12:27:19;;;;;;;9.88;4.05;;;21.30;57.10;;;;;;5013287;28;20491;-86
2021/08/28 12:29:52;;;;;;;9.70;4.20;;;21.20;57.40;;;;;;5012565;28;20025;-85
2021/08/28 12:32:24;;;;;;;7.22;3.85;;;21.40;57.40;;;;;;5012627;28;20084;-82
2021/08/28 12:34:55;;;;;;;5.15;3.47;;;21.40;57.20;;;;;;5013133;28;20018;-83
2021/08/28 12:37:23;;;;;;;5.50;3.65;;;21.40;57.20;;;;;;5012555;28;20057;-83
2021/08/28 12:39:52;;;;;;;7.13;3.72;;;21.30;56.90;;;;;;5012801;28;20022;-84
2021/08/28 12:42:21;;;;;;;7.75;3.35;;;21.40;56.50;;;;;;5012905;28;20084;-84
2021/08/28 12:44:52;;;;;;;8.73;3.17;;;21.30;56.30;;;;;;5012763;28;20049;-83
2021/08/28 12:47:21;;;;;;;4.82;3.20;;;21.40;56.70;;;;;;5012725;28;20076;-84
2021/08/28 12:49:51;;;;;;;5.80;3.00;;;21.50;56.40;;;;;;5012798;28;20025;-81
2021/08/28 12:52:16;;;;;;;5.88;3.38;;;21.50;55.70;;;;;;5013055;28;20029;-84
2021/08/28 12:54:47;;;;;;;11.30;4.18;;;21.40;55.80;;;;;;5012808;28;20116;-84